sensor_id;sensor_type;location;lat;lon;timestamp;P1;durP1;ratioP1;P2;durP2;ratioP2
65896;SDS011;52677;50.898;10.854;2023-12-20T00:00:38;0.73;;;0.50;;
65896;SDS011;52677;50.898;10.854;2023-12-20T00:02:38;0.50;;;0.50;;
65896;SDS011;52677;50.898;10.854;2023-12-20T00:04:38;0.50;;;0.50;;
65896;SDS011;52677;50.898;10.854;2023-12-20T00:06:39;0.73;;;0.70;;
65896;SDS011;52677;50.898;10.854;2023-12-20T00:08:39;0.60;;;0.50;;
65896;SDS011;52677;50.898;10.854;2023-12-20T00:10:39;0.60;;;0.50;;
65896;SDS011;52677;50.898;10.854;2023-12-20T00:12:40;0.93;;;0.70;;
65896;SDS011;52677;50.898;10.854;2023-12-20T00:14:41;0.73;;;0.70;;
65896;SDS011;52677;50.898;10.854;2023-12-20T00:16:41;0.60;;;0.60;;
65896;SDS011;52677;50.898;10.854;2023-12-20T00:18:41;0.70;;;0.60;;
65896;SDS011;52677;50.898;10.854;2023-12-20T00:20:41;0.52;;;0.52;;
65896;SDS011;52677;50.898;10.854;2023-12-20T00:22:42;0.50;;;0.50;;
65896;SDS011;52677;50.898;10.854;2023-12-20T00:24:42;0.60;;;0.60;;
65896;SDS011;52677;50.898;10.854;2023-12-20T00:26:42;0.50;;;0.50;;
65896;SDS011;52677;50.898;10.854;2023-12-20T00:28:43;0.40;;;0.40;;
65896;SDS011;52677;50.898;10.854;2023-12-20T00:30:43;0.50;;;0.50;;
65896;SDS011;52677;50.898;10.854;2023-12-20T00:32:43;0.40;;;0.40;;
65896;SDS011;52677;50.898;10.854;2023-12-20T00:34:46;0.98;;;0.57;;
65896;SDS011;52677;50.898;10.854;2023-12-20T00:36:46;0.50;;;0.50;;
65896;SDS011;52677;50.898;10.854;2023-12-20T00:38:47;0.50;;;0.50;;
65896;SDS011;52677;50.898;10.854;2023-12-20T00:40:48;0.70;;;0.55;;
65896;SDS011;52677;50.898;10.854;2023-12-20T00:42:49;0.50;;;0.50;;
65896;SDS011;52677;50.898;10.854;2023-12-20T00:44:49;0.50;;;0.50;;
65896;SDS011;52677;50.898;10.854;2023-12-20T00:46:50;0.52;;;0.52;;
65896;SDS011;52677;50.898;10.854;2023-12-20T00:48:51;0.50;;;0.50;;
65896;SDS011;52677;50.898;10.854;2023-12-20T00:50:51;0.77;;;0.50;;
65896;SDS011;52677;50.898;10.854;2023-12-20T00:52:52;0.40;;;0.40;;
65896;SDS011;52677;50.898;10.854;2023-12-20T00:54:52;0.40;;;0.40;;
65896;SDS011;52677;50.898;10.854;2023-12-20T00:56:52;0.50;;;0.50;;
65896;SDS011;52677;50.898;10.854;2023-12-20T00:58:53;0.50;;;0.50;;
65896;SDS011;52677;50.898;10.854;2023-12-20T01:00:53;4.55;;;0.50;;
65896;SDS011;52677;50.898;10.854;2023-12-20T01:02:53;0.47;;;0.47;;
65896;SDS011;52677;50.898;10.854;2023-12-20T01:04:54;0.77;;;0.45;;
65896;SDS011;52677;50.898;10.854;2023-12-20T01:06:54;0.50;;;0.50;;
65896;SDS011;52677;50.898;10.854;2023-12-20T01:08:54;0.40;;;0.40;;
65896;SDS011;52677;50.898;10.854;2023-12-20T01:10:54;0.50;;;0.50;;
65896;SDS011;52677;50.898;10.854;2023-12-20T01:12:55;0.50;;;0.50;;
65896;SDS011;52677;50.898;10.854;2023-12-20T01:14:55;0.50;;;0.50;;
65896;SDS011;52677;50.898;10.854;2023-12-20T01:16:55;0.60;;;0.60;;
65896;SDS011;52677;50.898;10.854;2023-12-20T01:18:56;0.50;;;0.50;;
65896;SDS011;52677;50.898;10.854;2023-12-20T01:20:56;1.45;;;0.82;;
65896;SDS011;52677;50.898;10.854;2023-12-20T01:23:01;1.55;;;1.00;;
65896;SDS011;52677;50.898;10.854;2023-12-20T01:25:01;1.58;;;1.02;;
65896;SDS011;52677;50.898;10.854;2023-12-20T01:27:02;0.80;;;0.60;;
65896;SDS011;52677;50.898;10.854;2023-12-20T01:29:03;0.60;;;0.60;;
65896;SDS011;52677;50.898;10.854;2023-12-20T01:31:03;1.95;;;0.60;;
65896;SDS011;52677;50.898;10.854;2023-12-20T01:33:04;0.50;;;0.50;;
65896;SDS011;52677;50.898;10.854;2023-12-20T01:35:04;0.55;;;0.55;;
65896;SDS011;52677;50.898;10.854;2023-12-20T01:37:04;0.52;;;0.52;;
65896;SDS011;52677;50.898;10.854;2023-12-20T01:39:05;0.50;;;0.50;;
65896;SDS011;52677;50.898;10.854;2023-12-20T01:41:05;0.50;;;0.50;;
65896;SDS011;52677;50.898;10.854;2023-12-20T01:43:08;0.60;;;0.60;;
65896;SDS011;52677;50.898;10.854;2023-12-20T01:45:09;0.50;;;0.50;;
65896;SDS011;52677;50.898;10.854;2023-12-20T01:47:10;0.98;;;0.60;;
65896;SDS011;52677;50.898;10.854;2023-12-20T01:49:10;0.50;;;0.50;;
65896;SDS011;52677;50.898;10.854;2023-12-20T01:51:11;0.40;;;0.40;;
65896;SDS011;52677;50.898;10.854;2023-12-20T01:53:12;0.55;;;0.55;;
65896;SDS011;52677;50.898;10.854;2023-12-20T01:55:12;0.50;;;0.50;;
65896;SDS011;52677;50.898;10.854;2023-12-20T01:57:15;0.50;;;0.50;;
65896;SDS011;52677;50.898;10.854;2023-12-20T01:59:15;0.45;;;0.45;;
65896;SDS011;52677;50.898;10.854;2023-12-20T02:01:17;0.70;;;0.50;;
65896;SDS011;52677;50.898;10.854;2023-12-20T02:03:18;0.40;;;0.40;;
65896;SDS011;52677;50.898;10.854;2023-12-20T02:05:19;0.50;;;0.50;;
65896;SDS011;52677;50.898;10.854;2023-12-20T02:07:20;0.45;;;0.45;;
65896;SDS011;52677;50.898;10.854;2023-12-20T02:09:22;1.58;;;0.57;;
65896;SDS011;52677;50.898;10.854;2023-12-20T02:11:22;0.77;;;0.50;;
65896;SDS011;52677;50.898;10.854;2023-12-20T02:13:23;0.40;;;0.40;;
65896;SDS011;52677;50.898;10.854;2023-12-20T02:15:23;0.50;;;0.50;;
65896;SDS011;52677;50.898;10.854;2023-12-20T02:17:24;0.60;;;0.60;;
65896;SDS011;52677;50.898;10.854;2023-12-20T02:19:25;0.47;;;0.47;;
65896;SDS011;52677;50.898;10.854;2023-12-20T02:21:31;0.65;;;0.50;;
65896;SDS011;52677;50.898;10.854;2023-12-20T02:23:32;0.50;;;0.50;;
65896;SDS011;52677;50.898;10.854;2023-12-20T02:25:32;0.50;;;0.50;;
65896;SDS011;52677;50.898;10.854;2023-12-20T02:27:33;0.50;;;0.50;;
65896;SDS011;52677;50.898;10.854;2023-12-20T02:29:35;0.50;;;0.50;;
65896;SDS011;52677;50.898;10.854;2023-12-20T02:31:36;0.50;;;0.50;;
65896;SDS011;52677;50.898;10.854;2023-12-20T02:33:36;0.40;;;0.40;;
65896;SDS011;52677;50.898;10.854;2023-12-20T02:35:36;0.50;;;0.50;;
65896;SDS011;52677;50.898;10.854;2023-12-20T02:37:36;0.40;;;0.40;;
65896;SDS011;52677;50.898;10.854;2023-12-20T02:39:37;0.40;;;0.40;;
65896;SDS011;52677;50.898;10.854;2023-12-20T02:41:37;0.50;;;0.50;;
65896;SDS011;52677;50.898;10.854;2023-12-20T02:43:37;0.50;;;0.50;;
65896;SDS011;52677;50.898;10.854;2023-12-20T02:45:38;2.42;;;0.50;;
65896;SDS011;52677;50.898;10.854;2023-12-20T02:47:38;0.50;;;0.50;;
65896;SDS011;52677;50.898;10.854;2023-12-20T02:49:38;0.50;;;0.50;;
65896;SDS011;52677;50.898;10.854;2023-12-20T02:51:39;0.43;;;0.43;;
65896;SDS011;52677;50.898;10.854;2023-12-20T02:53:39;0.50;;;0.50;;
65896;SDS011;52677;50.898;10.854;2023-12-20T02:55:39;0.47;;;0.47;;
65896;SDS011;52677;50.898;10.854;2023-12-20T02:57:40;0.60;;;0.60;;
65896;SDS011;52677;50.898;10.854;2023-12-20T02:59:43;0.73;;;0.73;;
65896;SDS011;52677;50.898;10.854;2023-12-20T03:01:43;1.98;;;0.90;;
65896;SDS011;52677;50.898;10.854;2023-12-20T03:03:45;0.85;;;0.77;;
65896;SDS011;52677;50.898;10.854;2023-12-20T03:05:45;0.60;;;0.60;;
65896;SDS011;52677;50.898;10.854;2023-12-20T03:07:46;0.50;;;0.50;;
65896;SDS011;52677;50.898;10.854;2023-12-20T03:09:46;2.90;;;0.75;;
65896;SDS011;52677;50.898;10.854;2023-12-20T03:11:47;0.50;;;0.50;;
65896;SDS011;52677;50.898;10.854;2023-12-20T03:13:47;0.55;;;0.55;;
65896;SDS011;52677;50.898;10.854;2023-12-20T03:15:47;0.57;;;0.57;;
65896;SDS011;52677;50.898;10.854;2023-12-20T03:17:48;0.57;;;0.57;;
65896;SDS011;52677;50.898;10.854;2023-12-20T03:19:48;0.50;;;0.50;;
65896;SDS011;52677;50.898;10.854;2023-12-20T03:21:48;0.40;;;0.40;;
65896;SDS011;52677;50.898;10.854;2023-12-20T03:23:49;0.50;;;0.50;;
65896;SDS011;52677;50.898;10.854;2023-12-20T03:25:49;0.55;;;0.55;;
65896;SDS011;52677;50.898;10.854;2023-12-20T03:27:49;0.40;;;0.40;;
65896;SDS011;52677;50.898;10.854;2023-12-20T03:29:49;0.40;;;0.40;;
65896;SDS011;52677;50.898;10.854;2023-12-20T03:31:50;0.52;;;0.52;;
65896;SDS011;52677;50.898;10.854;2023-12-20T03:33:50;0.50;;;0.50;;
65896;SDS011;52677;50.898;10.854;2023-12-20T03:35:52;1.30;;;0.70;;
65896;SDS011;52677;50.898;10.854;2023-12-20T03:37:52;1.73;;;0.77;;
65896;SDS011;52677;50.898;10.854;2023-12-20T03:39:53;1.83;;;0.90;;
65896;SDS011;52677;50.898;10.854;2023-12-20T03:41:53;0.52;;;0.52;;
65896;SDS011;52677;50.898;10.854;2023-12-20T03:43:53;0.70;;;0.70;;
65896;SDS011;52677;50.898;10.854;2023-12-20T03:45:54;0.68;;;0.68;;
65896;SDS011;52677;50.898;10.854;2023-12-20T03:47:54;1.85;;;0.70;;
65896;SDS011;52677;50.898;10.854;2023-12-20T03:49:56;1.38;;;0.70;;
65896;SDS011;52677;50.898;10.854;2023-12-20T03:51:56;1.52;;;0.70;;
65896;SDS011;52677;50.898;10.854;2023-12-20T03:53:56;0.85;;;0.70;;
65896;SDS011;52677;50.898;10.854;2023-12-20T03:55:57;0.60;;;0.60;;
65896;SDS011;52677;50.898;10.854;2023-12-20T03:57:57;0.55;;;0.55;;
65896;SDS011;52677;50.898;10.854;2023-12-20T03:59:57;1.20;;;0.77;;
65896;SDS011;52677;50.898;10.854;2023-12-20T04:01:58;0.70;;;0.70;;
65896;SDS011;52677;50.898;10.854;2023-12-20T04:03:58;0.80;;;0.80;;
65896;SDS011;52677;50.898;10.854;2023-12-20T04:05:58;0.77;;;0.77;;
65896;SDS011;52677;50.898;10.854;2023-12-20T04:07:59;1.63;;;1.42;;
65896;SDS011;52677;50.898;10.854;2023-12-20T04:10:01;1.92;;;1.10;;
65896;SDS011;52677;50.898;10.854;2023-12-20T04:12:03;2.15;;;1.40;;
65896;SDS011;52677;50.898;10.854;2023-12-20T04:14:05;2.95;;;1.40;;
65896;SDS011;52677;50.898;10.854;2023-12-20T04:16:07;1.30;;;1.20;;
65896;SDS011;52677;50.898;10.854;2023-12-20T04:18:07;2.47;;;1.30;;
65896;SDS011;52677;50.898;10.854;2023-12-20T04:20:07;2.30;;;1.48;;
65896;SDS011;52677;50.898;10.854;2023-12-20T04:22:08;4.28;;;1.60;;
65896;SDS011;52677;50.898;10.854;2023-12-20T04:24:08;4.53;;;2.00;;
65896;SDS011;52677;50.898;10.854;2023-12-20T04:26:09;3.22;;;1.83;;
65896;SDS011;52677;50.898;10.854;2023-12-20T04:28:10;1.45;;;1.15;;
65896;SDS011;52677;50.898;10.854;2023-12-20T04:30:11;3.92;;;1.70;;
65896;SDS011;52677;50.898;10.854;2023-12-20T04:32:11;2.20;;;1.33;;
65896;SDS011;52677;50.898;10.854;2023-12-20T04:34:11;2.88;;;1.75;;
65896;SDS011;52677;50.898;10.854;2023-12-20T04:36:12;2.40;;;1.67;;
65896;SDS011;52677;50.898;10.854;2023-12-20T04:38:12;2.95;;;1.80;;
65896;SDS011;52677;50.898;10.854;2023-12-20T04:40:13;2.47;;;1.30;;
65896;SDS011;52677;50.898;10.854;2023-12-20T04:42:13;2.42;;;1.50;;
65896;SDS011;52677;50.898;10.854;2023-12-20T04:44:13;4.63;;;1.77;;
65896;SDS011;52677;50.898;10.854;2023-12-20T04:46:14;2.90;;;1.30;;
65896;SDS011;52677;50.898;10.854;2023-12-20T04:48:14;2.72;;;1.80;;
65896;SDS011;52677;50.898;10.854;2023-12-20T04:50:14;4.85;;;1.67;;
65896;SDS011;52677;50.898;10.854;2023-12-20T04:52:15;2.58;;;1.60;;
65896;SDS011;52677;50.898;10.854;2023-12-20T04:54:15;2.15;;;1.60;;
65896;SDS011;52677;50.898;10.854;2023-12-20T04:56:16;1.98;;;1.40;;
65896;SDS011;52677;50.898;10.854;2023-12-20T04:58:16;3.17;;;1.73;;
65896;SDS011;52677;50.898;10.854;2023-12-20T05:00:16;3.53;;;1.85;;
65896;SDS011;52677;50.898;10.854;2023-12-20T05:02:17;2.80;;;1.90;;
65896;SDS011;52677;50.898;10.854;2023-12-20T05:04:17;3.28;;;1.95;;
65896;SDS011;52677;50.898;10.854;2023-12-20T05:06:17;3.47;;;2.28;;
65896;SDS011;52677;50.898;10.854;2023-12-20T05:08:18;3.10;;;1.92;;
65896;SDS011;52677;50.898;10.854;2023-12-20T05:10:18;11.38;;;6.50;;
65896;SDS011;52677;50.898;10.854;2023-12-20T05:12:18;10.88;;;7.78;;
65896;SDS011;52677;50.898;10.854;2023-12-20T05:14:19;6.53;;;5.13;;
65896;SDS011;52677;50.898;10.854;2023-12-20T05:16:19;6.28;;;4.57;;
65896;SDS011;52677;50.898;10.854;2023-12-20T05:18:20;5.38;;;3.47;;
65896;SDS011;52677;50.898;10.854;2023-12-20T05:20:21;6.82;;;3.33;;
65896;SDS011;52677;50.898;10.854;2023-12-20T05:22:21;8.52;;;4.63;;
65896;SDS011;52677;50.898;10.854;2023-12-20T05:24:22;10.82;;;5.70;;
65896;SDS011;52677;50.898;10.854;2023-12-20T05:26:22;8.85;;;4.60;;
65896;SDS011;52677;50.898;10.854;2023-12-20T05:28:22;10.00;;;5.25;;
65896;SDS011;52677;50.898;10.854;2023-12-20T05:30:22;9.93;;;4.13;;
65896;SDS011;52677;50.898;10.854;2023-12-20T05:32:23;8.77;;;3.47;;
65896;SDS011;52677;50.898;10.854;2023-12-20T05:34:24;4.90;;;2.95;;
65896;SDS011;52677;50.898;10.854;2023-12-20T05:36:24;4.18;;;2.28;;
65896;SDS011;52677;50.898;10.854;2023-12-20T05:38:24;3.15;;;2.30;;
65896;SDS011;52677;50.898;10.854;2023-12-20T05:40:24;3.83;;;2.42;;
65896;SDS011;52677;50.898;10.854;2023-12-20T05:42:25;5.75;;;3.10;;
65896;SDS011;52677;50.898;10.854;2023-12-20T05:44:25;4.18;;;2.50;;
65896;SDS011;52677;50.898;10.854;2023-12-20T05:46:25;3.90;;;3.00;;
65896;SDS011;52677;50.898;10.854;2023-12-20T05:48:26;2.97;;;2.30;;
65896;SDS011;52677;50.898;10.854;2023-12-20T05:50:27;2.90;;;2.10;;
65896;SDS011;52677;50.898;10.854;2023-12-20T05:52:27;4.53;;;2.42;;
65896;SDS011;52677;50.898;10.854;2023-12-20T05:54:28;2.92;;;2.20;;
65896;SDS011;52677;50.898;10.854;2023-12-20T05:56:28;2.75;;;2.10;;
65896;SDS011;52677;50.898;10.854;2023-12-20T05:58:28;4.22;;;2.00;;
65896;SDS011;52677;50.898;10.854;2023-12-20T06:00:29;4.18;;;2.47;;
65896;SDS011;52677;50.898;10.854;2023-12-20T06:02:29;3.55;;;2.05;;
65896;SDS011;52677;50.898;10.854;2023-12-20T06:04:30;11.15;;;6.72;;
65896;SDS011;52677;50.898;10.854;2023-12-20T06:06:30;6.57;;;4.00;;
65896;SDS011;52677;50.898;10.854;2023-12-20T06:08:30;4.28;;;2.65;;
65896;SDS011;52677;50.898;10.854;2023-12-20T06:10:31;6.18;;;5.07;;
65896;SDS011;52677;50.898;10.854;2023-12-20T06:12:31;4.85;;;3.65;;
65896;SDS011;52677;50.898;10.854;2023-12-20T06:14:33;5.10;;;2.65;;
65896;SDS011;52677;50.898;10.854;2023-12-20T06:16:34;4.97;;;2.30;;
65896;SDS011;52677;50.898;10.854;2023-12-20T06:18:34;5.13;;;2.22;;
65896;SDS011;52677;50.898;10.854;2023-12-20T06:20:36;6.22;;;3.70;;
65896;SDS011;52677;50.898;10.854;2023-12-20T06:22:37;4.82;;;2.70;;
65896;SDS011;52677;50.898;10.854;2023-12-20T06:24:37;8.40;;;3.17;;
65896;SDS011;52677;50.898;10.854;2023-12-20T06:26:37;3.65;;;2.60;;
65896;SDS011;52677;50.898;10.854;2023-12-20T06:28:38;9.82;;;6.47;;
65896;SDS011;52677;50.898;10.854;2023-12-20T06:30:38;11.65;;;4.78;;
65896;SDS011;52677;50.898;10.854;2023-12-20T06:32:38;9.35;;;4.90;;
65896;SDS011;52677;50.898;10.854;2023-12-20T06:34:39;16.25;;;7.40;;
65896;SDS011;52677;50.898;10.854;2023-12-20T06:36:39;23.83;;;13.00;;
65896;SDS011;52677;50.898;10.854;2023-12-20T06:38:40;11.40;;;7.15;;
65896;SDS011;52677;50.898;10.854;2023-12-20T06:40:42;13.68;;;6.05;;
65896;SDS011;52677;50.898;10.854;2023-12-20T06:42:43;8.32;;;5.25;;
65896;SDS011;52677;50.898;10.854;2023-12-20T06:44:43;9.07;;;4.90;;
65896;SDS011;52677;50.898;10.854;2023-12-20T06:46:44;14.50;;;5.28;;
65896;SDS011;52677;50.898;10.854;2023-12-20T06:48:44;12.43;;;5.75;;
65896;SDS011;52677;50.898;10.854;2023-12-20T06:50:44;12.00;;;6.40;;
65896;SDS011;52677;50.898;10.854;2023-12-20T06:52:45;9.23;;;4.90;;
65896;SDS011;52677;50.898;10.854;2023-12-20T06:54:45;14.27;;;7.20;;
65896;SDS011;52677;50.898;10.854;2023-12-20T06:56:45;9.68;;;5.80;;
65896;SDS011;52677;50.898;10.854;2023-12-20T06:58:46;8.15;;;4.72;;
65896;SDS011;52677;50.898;10.854;2023-12-20T07:00:46;8.18;;;4.22;;
65896;SDS011;52677;50.898;10.854;2023-12-20T07:02:46;6.97;;;3.28;;
65896;SDS011;52677;50.898;10.854;2023-12-20T07:04:47;4.45;;;3.15;;
65896;SDS011;52677;50.898;10.854;2023-12-20T07:06:48;5.90;;;3.08;;
65896;SDS011;52677;50.898;10.854;2023-12-20T07:08:52;5.43;;;2.70;;
65896;SDS011;52677;50.898;10.854;2023-12-20T07:10:52;3.30;;;2.53;;
65896;SDS011;52677;50.898;10.854;2023-12-20T07:12:52;5.38;;;2.50;;
65896;SDS011;52677;50.898;10.854;2023-12-20T07:14:55;4.68;;;2.45;;
65896;SDS011;52677;50.898;10.854;2023-12-20T07:16:56;6.47;;;2.80;;
65896;SDS011;52677;50.898;10.854;2023-12-20T07:18:57;3.97;;;2.53;;
65896;SDS011;52677;50.898;10.854;2023-12-20T07:20:57;4.75;;;3.08;;
65896;SDS011;52677;50.898;10.854;2023-12-20T07:22:57;7.53;;;3.38;;
65896;SDS011;52677;50.898;10.854;2023-12-20T07:24:58;5.32;;;3.03;;
65896;SDS011;52677;50.898;10.854;2023-12-20T07:26:59;7.38;;;2.92;;
65896;SDS011;52677;50.898;10.854;2023-12-20T07:29:00;4.13;;;2.80;;
65896;SDS011;52677;50.898;10.854;2023-12-20T07:31:00;8.18;;;3.13;;
65896;SDS011;52677;50.898;10.854;2023-12-20T07:33:00;6.32;;;3.67;;
65896;SDS011;52677;50.898;10.854;2023-12-20T07:35:02;8.20;;;5.18;;
65896;SDS011;52677;50.898;10.854;2023-12-20T07:37:03;6.15;;;3.67;;
65896;SDS011;52677;50.898;10.854;2023-12-20T07:39:04;9.63;;;4.80;;
65896;SDS011;52677;50.898;10.854;2023-12-20T07:41:04;6.50;;;3.65;;
65896;SDS011;52677;50.898;10.854;2023-12-20T07:43:05;4.85;;;3.38;;
65896;SDS011;52677;50.898;10.854;2023-12-20T07:45:05;8.27;;;3.75;;
65896;SDS011;52677;50.898;10.854;2023-12-20T07:47:05;4.68;;;3.35;;
65896;SDS011;52677;50.898;10.854;2023-12-20T07:49:06;6.97;;;3.58;;
65896;SDS011;52677;50.898;10.854;2023-12-20T07:51:06;6.88;;;3.33;;
65896;SDS011;52677;50.898;10.854;2023-12-20T07:53:08;6.13;;;3.58;;
65896;SDS011;52677;50.898;10.854;2023-12-20T07:55:08;4.13;;;2.92;;
65896;SDS011;52677;50.898;10.854;2023-12-20T07:57:09;5.50;;;3.58;;
65896;SDS011;52677;50.898;10.854;2023-12-20T07:59:10;11.50;;;6.00;;
65896;SDS011;52677;50.898;10.854;2023-12-20T08:01:11;14.20;;;5.97;;
65896;SDS011;52677;50.898;10.854;2023-12-20T08:03:12;6.70;;;3.67;;
65896;SDS011;52677;50.898;10.854;2023-12-20T08:05:12;4.47;;;2.92;;
65896;SDS011;52677;50.898;10.854;2023-12-20T08:07:13;4.50;;;2.83;;
65896;SDS011;52677;50.898;10.854;2023-12-20T08:09:14;4.55;;;2.40;;
65896;SDS011;52677;50.898;10.854;2023-12-20T08:11:14;3.78;;;2.25;;
65896;SDS011;52677;50.898;10.854;2023-12-20T08:13:15;5.05;;;2.50;;
65896;SDS011;52677;50.898;10.854;2023-12-20T08:15:15;3.90;;;2.58;;
65896;SDS011;52677;50.898;10.854;2023-12-20T08:17:16;6.18;;;3.10;;
65896;SDS011;52677;50.898;10.854;2023-12-20T08:19:18;5.93;;;3.65;;
65896;SDS011;52677;50.898;10.854;2023-12-20T08:21:18;6.22;;;2.95;;
65896;SDS011;52677;50.898;10.854;2023-12-20T08:23:20;4.32;;;2.85;;
65896;SDS011;52677;50.898;10.854;2023-12-20T08:25:21;3.80;;;2.53;;
65896;SDS011;52677;50.898;10.854;2023-12-20T08:27:21;5.30;;;2.63;;
65896;SDS011;52677;50.898;10.854;2023-12-20T08:29:21;6.25;;;2.70;;
65896;SDS011;52677;50.898;10.854;2023-12-20T08:31:22;4.45;;;2.53;;
65896;SDS011;52677;50.898;10.854;2023-12-20T08:33:22;4.53;;;2.20;;
65896;SDS011;52677;50.898;10.854;2023-12-20T08:35:22;4.10;;;2.30;;
65896;SDS011;52677;50.898;10.854;2023-12-20T08:37:24;6.70;;;2.80;;
65896;SDS011;52677;50.898;10.854;2023-12-20T08:39:24;4.80;;;2.72;;
65896;SDS011;52677;50.898;10.854;2023-12-20T08:41:24;3.28;;;2.33;;
65896;SDS011;52677;50.898;10.854;2023-12-20T08:43:25;6.65;;;2.92;;
65896;SDS011;52677;50.898;10.854;2023-12-20T08:45:25;4.15;;;2.75;;
65896;SDS011;52677;50.898;10.854;2023-12-20T08:47:25;4.90;;;3.30;;
65896;SDS011;52677;50.898;10.854;2023-12-20T08:49:25;11.27;;;4.50;;
65896;SDS011;52677;50.898;10.854;2023-12-20T08:51:26;12.30;;;5.70;;
65896;SDS011;52677;50.898;10.854;2023-12-20T08:53:26;15.88;;;7.30;;
65896;SDS011;52677;50.898;10.854;2023-12-20T08:55:27;11.32;;;6.03;;
65896;SDS011;52677;50.898;10.854;2023-12-20T08:57:28;5.68;;;3.13;;
65896;SDS011;52677;50.898;10.854;2023-12-20T08:59:29;6.20;;;3.10;;
65896;SDS011;52677;50.898;10.854;2023-12-20T09:01:29;5.32;;;2.60;;
65896;SDS011;52677;50.898;10.854;2023-12-20T09:03:30;3.28;;;2.20;;
65896;SDS011;52677;50.898;10.854;2023-12-20T09:05:30;6.90;;;2.25;;
65896;SDS011;52677;50.898;10.854;2023-12-20T09:07:31;4.63;;;2.38;;
65896;SDS011;52677;50.898;10.854;2023-12-20T09:09:31;8.98;;;2.83;;
65896;SDS011;52677;50.898;10.854;2023-12-20T09:11:32;6.50;;;2.10;;
65896;SDS011;52677;50.898;10.854;2023-12-20T09:13:32;5.72;;;2.50;;
65896;SDS011;52677;50.898;10.854;2023-12-20T09:15:33;4.90;;;2.17;;
65896;SDS011;52677;50.898;10.854;2023-12-20T09:17:34;5.72;;;2.00;;
65896;SDS011;52677;50.898;10.854;2023-12-20T09:19:34;3.47;;;1.90;;
65896;SDS011;52677;50.898;10.854;2023-12-20T09:21:34;3.78;;;2.00;;
65896;SDS011;52677;50.898;10.854;2023-12-20T09:23:35;4.40;;;1.80;;
65896;SDS011;52677;50.898;10.854;2023-12-20T09:25:36;3.75;;;1.95;;
65896;SDS011;52677;50.898;10.854;2023-12-20T09:27:37;6.00;;;2.00;;
65896;SDS011;52677;50.898;10.854;2023-12-20T09:29:37;6.47;;;2.22;;
65896;SDS011;52677;50.898;10.854;2023-12-20T09:31:38;7.82;;;2.70;;
65896;SDS011;52677;50.898;10.854;2023-12-20T09:33:38;7.15;;;3.13;;
65896;SDS011;52677;50.898;10.854;2023-12-20T09:35:38;4.13;;;1.98;;
65896;SDS011;52677;50.898;10.854;2023-12-20T09:37:38;13.25;;;2.17;;
65896;SDS011;52677;50.898;10.854;2023-12-20T09:39:41;4.65;;;2.33;;
65896;SDS011;52677;50.898;10.854;2023-12-20T09:41:44;6.40;;;2.67;;
65896;SDS011;52677;50.898;10.854;2023-12-20T09:43:49;3.50;;;2.25;;
65896;SDS011;52677;50.898;10.854;2023-12-20T09:45:53;3.25;;;2.13;;
65896;SDS011;52677;50.898;10.854;2023-12-20T09:47:53;5.28;;;2.03;;
65896;SDS011;52677;50.898;10.854;2023-12-20T09:49:57;8.65;;;2.67;;
65896;SDS011;52677;50.898;10.854;2023-12-20T09:51:57;6.65;;;2.83;;
65896;SDS011;52677;50.898;10.854;2023-12-20T09:53:57;6.53;;;2.28;;
65896;SDS011;52677;50.898;10.854;2023-12-20T09:55:59;6.72;;;3.40;;
65896;SDS011;52677;50.898;10.854;2023-12-20T09:58:00;4.05;;;1.80;;
65896;SDS011;52677;50.898;10.854;2023-12-20T10:00:01;4.38;;;1.80;;
65896;SDS011;52677;50.898;10.854;2023-12-20T10:02:01;5.88;;;2.33;;
65896;SDS011;52677;50.898;10.854;2023-12-20T10:04:06;6.97;;;1.75;;
65896;SDS011;52677;50.898;10.854;2023-12-20T10:06:09;3.10;;;1.65;;
65896;SDS011;52677;50.898;10.854;2023-12-20T10:08:10;4.18;;;2.13;;
65896;SDS011;52677;50.898;10.854;2023-12-20T10:10:10;5.47;;;2.00;;
65896;SDS011;52677;50.898;10.854;2023-12-20T10:12:13;5.50;;;1.83;;
65896;SDS011;52677;50.898;10.854;2023-12-20T10:14:13;5.03;;;2.25;;
65896;SDS011;52677;50.898;10.854;2023-12-20T10:16:14;5.25;;;2.03;;
65896;SDS011;52677;50.898;10.854;2023-12-20T10:18:14;6.60;;;1.85;;
65896;SDS011;52677;50.898;10.854;2023-12-20T10:20:16;4.20;;;1.83;;
65896;SDS011;52677;50.898;10.854;2023-12-20T10:22:16;6.15;;;2.58;;
65896;SDS011;52677;50.898;10.854;2023-12-20T10:24:17;6.72;;;2.88;;
65896;SDS011;52677;50.898;10.854;2023-12-20T10:26:24;5.60;;;2.47;;
65896;SDS011;52677;50.898;10.854;2023-12-20T10:28:26;6.40;;;2.17;;
65896;SDS011;52677;50.898;10.854;2023-12-20T10:30:28;6.35;;;2.15;;
65896;SDS011;52677;50.898;10.854;2023-12-20T10:32:28;2.60;;;2.08;;
65896;SDS011;52677;50.898;10.854;2023-12-20T10:34:28;6.00;;;2.22;;
65896;SDS011;52677;50.898;10.854;2023-12-20T10:36:29;4.05;;;2.05;;
65896;SDS011;52677;50.898;10.854;2023-12-20T10:38:31;3.95;;;2.22;;
65896;SDS011;52677;50.898;10.854;2023-12-20T10:40:34;4.85;;;2.60;;
65896;SDS011;52677;50.898;10.854;2023-12-20T10:42:36;4.25;;;2.60;;
65896;SDS011;52677;50.898;10.854;2023-12-20T10:44:38;6.70;;;2.63;;
65896;SDS011;52677;50.898;10.854;2023-12-20T10:46:39;2.97;;;2.25;;
65896;SDS011;52677;50.898;10.854;2023-12-20T10:48:40;6.60;;;2.78;;
65896;SDS011;52677;50.898;10.854;2023-12-20T10:50:41;11.68;;;4.57;;
65896;SDS011;52677;50.898;10.854;2023-12-20T10:52:42;2.72;;;2.10;;
65896;SDS011;52677;50.898;10.854;2023-12-20T10:54:44;2.85;;;1.70;;
65896;SDS011;52677;50.898;10.854;2023-12-20T10:56:44;3.30;;;1.98;;
65896;SDS011;52677;50.898;10.854;2023-12-20T10:58:46;6.22;;;1.92;;
65896;SDS011;52677;50.898;10.854;2023-12-20T11:00:47;6.18;;;2.83;;
65896;SDS011;52677;50.898;10.854;2023-12-20T11:02:56;4.78;;;2.20;;
65896;SDS011;52677;50.898;10.854;2023-12-20T11:05:09;5.88;;;2.20;;
65896;SDS011;52677;50.898;10.854;2023-12-20T11:07:35;2.38;;;2.10;;
65896;SDS011;52677;50.898;10.854;2023-12-20T11:09:43;3.20;;;1.90;;
65896;SDS011;52677;50.898;10.854;2023-12-20T11:11:56;5.63;;;2.20;;
65896;SDS011;52677;50.898;10.854;2023-12-20T11:16:08;4.72;;;2.90;;
65896;SDS011;52677;50.898;10.854;2023-12-20T11:18:09;4.38;;;2.88;;
65896;SDS011;52677;50.898;10.854;2023-12-20T11:20:09;7.25;;;3.15;;
65896;SDS011;52677;50.898;10.854;2023-12-20T11:22:11;7.10;;;2.30;;
65896;SDS011;52677;50.898;10.854;2023-12-20T11:24:12;3.63;;;2.20;;
65896;SDS011;52677;50.898;10.854;2023-12-20T11:26:13;6.10;;;2.13;;
65896;SDS011;52677;50.898;10.854;2023-12-20T11:28:16;8.63;;;2.30;;
65896;SDS011;52677;50.898;10.854;2023-12-20T11:30:21;9.05;;;5.30;;
65896;SDS011;52677;50.898;10.854;2023-12-20T11:34:21;4.95;;;2.25;;
65896;SDS011;52677;50.898;10.854;2023-12-20T11:36:22;7.97;;;3.50;;
65896;SDS011;52677;50.898;10.854;2023-12-20T11:38:25;6.28;;;3.53;;
65896;SDS011;52677;50.898;10.854;2023-12-20T11:40:25;5.00;;;2.17;;
65896;SDS011;52677;50.898;10.854;2023-12-20T11:42:26;4.72;;;1.80;;
65896;SDS011;52677;50.898;10.854;2023-12-20T11:44:26;7.00;;;2.38;;
65896;SDS011;52677;50.898;10.854;2023-12-20T11:46:31;6.40;;;2.55;;
65896;SDS011;52677;50.898;10.854;2023-12-20T11:48:31;3.85;;;2.38;;
65896;SDS011;52677;50.898;10.854;2023-12-20T11:50:32;5.20;;;2.00;;
65896;SDS011;52677;50.898;10.854;2023-12-20T11:52:32;3.92;;;1.95;;
65896;SDS011;52677;50.898;10.854;2023-12-20T11:54:33;4.65;;;2.30;;
65896;SDS011;52677;50.898;10.854;2023-12-20T11:56:33;5.60;;;2.40;;
65896;SDS011;52677;50.898;10.854;2023-12-20T11:58:33;5.13;;;2.47;;
65896;SDS011;52677;50.898;10.854;2023-12-20T12:00:35;3.78;;;2.03;;